createdAt,value
2023-05-18T00:00:36.211Z,58.60
2023-05-18T00:03:23.551Z,58.50
2023-05-18T00:06:10.882Z,58.60
2023-05-18T00:08:58.099Z,58.60
2023-05-18T00:11:45.900Z,58.80
2023-05-18T00:14:33.205Z,58.70
2023-05-18T00:17:21.808Z,58.60
2023-05-18T00:20:09.921Z,58.60
2023-05-18T00:22:57.307Z,58.70
2023-05-18T00:25:44.561Z,58.80
2023-05-18T00:28:31.750Z,58.80
2023-05-18T00:31:19.342Z,58.80
2023-05-18T00:34:07.649Z,59.00
2023-05-18T00:36:54.994Z,58.90
2023-05-18T00:39:42.230Z,59.00
2023-05-18T00:42:29.544Z,58.90
2023-05-18T00:45:16.896Z,59.00
2023-05-18T00:48:04.756Z,59.00
2023-05-18T00:50:52.163Z,59.00
2023-05-18T00:53:39.753Z,59.00
2023-05-18T00:56:29.150Z,58.90
2023-05-18T00:59:16.588Z,59.00
2023-05-18T01:02:04.232Z,59.10
2023-05-18T01:04:52.867Z,59.20
2023-05-18T01:07:42.655Z,59.30
2023-05-18T01:10:36.900Z,59.40
2023-05-18T01:13:35.459Z,59.50
2023-05-18T01:16:28.003Z,59.40
2023-05-18T01:19:44.981Z,59.30
2023-05-18T01:22:58.927Z,59.20
2023-05-18T01:25:56.520Z,59.30
2023-05-18T01:28:46.691Z,59.20
2023-05-18T01:31:34.870Z,59.20
2023-05-18T01:34:22.575Z,59.40
2023-05-18T01:37:09.801Z,59.40
2023-05-18T01:39:57.072Z,59.40
2023-05-18T01:42:50.808Z,59.40
2023-05-18T01:45:42.997Z,59.40
2023-05-18T01:48:31.848Z,59.40
2023-05-18T01:51:21.475Z,59.40
2023-05-18T01:54:10.813Z,59.40
2023-05-18T01:57:01.166Z,59.40
2023-05-18T01:59:48.789Z,59.50
2023-05-18T02:02:36.509Z,59.50
2023-05-18T02:05:23.850Z,59.50
2023-05-18T02:08:11.669Z,59.40
2023-05-18T02:10:58.908Z,59.50
2023-05-18T02:13:46.240Z,59.50
2023-05-18T02:16:33.513Z,59.50
2023-05-18T02:19:22.188Z,59.50
2023-05-18T02:22:09.461Z,59.60
2023-05-18T02:24:56.984Z,59.50
2023-05-18T02:27:44.150Z,59.60
2023-05-18T02:30:33.380Z,59.70
2023-05-18T02:33:26.139Z,59.80
2023-05-18T02:36:14.665Z,59.80
2023-05-18T02:39:01.922Z,59.80
2023-05-18T02:41:49.183Z,59.70
2023-05-18T02:44:36.479Z,59.70
2023-05-18T02:47:23.814Z,59.70
2023-05-18T02:50:11.479Z,59.80
2023-05-18T02:52:58.891Z,59.90
2023-05-18T02:55:46.775Z,59.90
2023-05-18T02:58:34.048Z,60.00
2023-05-18T03:01:21.472Z,60.00
2023-05-18T03:04:08.736Z,60.00
2023-05-18T03:06:57.465Z,60.00
2023-05-18T03:09:44.695Z,60.10
2023-05-18T03:12:31.959Z,60.20
2023-05-18T03:15:19.606Z,60.10
2023-05-18T03:18:07.115Z,60.00
2023-05-18T03:20:54.451Z,60.00
2023-05-18T03:23:41.744Z,60.10
2023-05-18T03:26:32.056Z,60.00
2023-05-18T03:29:19.311Z,60.30
2023-05-18T03:32:08.422Z,60.20
2023-05-18T03:34:56.203Z,60.30
2023-05-18T03:37:43.506Z,60.20
2023-05-18T03:40:30.976Z,60.30
2023-05-18T03:43:18.178Z,60.30
2023-05-18T03:46:05.816Z,60.40
2023-05-18T03:48:54.354Z,60.40
2023-05-18T03:51:41.636Z,60.40
2023-05-18T03:54:28.903Z,60.30
2023-05-18T03:57:17.361Z,60.40
2023-05-18T04:00:11.716Z,60.60
2023-05-18T04:02:59.059Z,60.70
2023-05-18T04:05:46.423Z,60.60
2023-05-18T04:08:34.548Z,61.40
2023-05-18T04:11:22.649Z,60.70
2023-05-18T04:14:11.202Z,60.80
2023-05-18T04:17:04.717Z,60.90
2023-05-18T04:19:51.990Z,61.60
2023-05-18T04:22:43.664Z,60.70
2023-05-18T04:25:31.388Z,60.90
2023-05-18T04:28:19.375Z,60.90
2023-05-18T04:31:06.714Z,61.10
2023-05-18T04:33:54.651Z,61.10
2023-05-18T04:36:43.953Z,61.40
2023-05-18T04:39:32.549Z,61.50
2023-05-18T04:42:19.882Z,61.60
2023-05-18T04:45:07.523Z,61.60
2023-05-18T04:47:54.883Z,61.80
2023-05-18T04:50:42.188Z,61.80
2023-05-18T04:53:29.425Z,62.00
2023-05-18T04:56:22.769Z,62.00
2023-05-18T04:59:10.907Z,62.30
2023-05-18T05:01:58.259Z,62.40
2023-05-18T05:04:45.739Z,62.40
2023-05-18T05:07:32.988Z,62.70
2023-05-18T05:10:20.992Z,62.70
2023-05-18T05:17:09.867Z,63.20
2023-05-18T05:19:57.193Z,63.00
2023-05-18T05:22:44.620Z,63.10
2023-05-18T05:25:32.183Z,63.40
2023-05-18T05:28:19.645Z,63.50
2023-05-18T05:31:06.969Z,63.40
2023-05-18T05:33:54.223Z,63.50
2023-05-18T05:36:41.947Z,63.40
2023-05-18T05:39:29.194Z,63.40
2023-05-18T05:42:16.636Z,63.70
2023-05-18T05:45:04.183Z,63.70
2023-05-18T05:47:51.597Z,63.50
2023-05-18T05:50:38.995Z,63.70
2023-05-18T05:53:26.276Z,63.50
2023-05-18T05:56:13.536Z,63.30
2023-05-18T05:59:01.075Z,63.10
2023-05-18T06:01:48.414Z,62.90
2023-05-18T06:04:35.854Z,62.60
2023-05-18T06:07:23.270Z,62.40
2023-05-18T06:10:10.527Z,62.40
2023-05-18T06:12:57.787Z,62.20
2023-05-18T06:15:45.056Z,62.00
2023-05-18T06:18:32.341Z,61.80
2023-05-18T06:21:19.676Z,61.80
2023-05-18T06:24:07.153Z,61.70
2023-05-18T06:26:54.462Z,61.70
2023-05-18T06:29:42.030Z,61.50
2023-05-18T06:32:29.409Z,61.40
2023-05-18T06:35:16.780Z,61.40
2023-05-18T06:38:04.247Z,61.20
2023-05-18T06:40:51.552Z,61.10
2023-05-18T06:43:42.127Z,61.20
2023-05-18T06:46:29.452Z,61.30
2023-05-18T06:49:16.707Z,61.20
2023-05-18T06:52:04.524Z,61.10
2023-05-18T06:54:51.786Z,61.80
2023-05-18T06:57:39.026Z,61.80
2023-05-18T07:00:26.274Z,61.00
2023-05-18T07:03:13.591Z,61.10
2023-05-18T07:06:01.434Z,61.00
2023-05-18T07:08:48.873Z,61.10
2023-05-18T07:11:36.319Z,61.00
2023-05-18T07:14:24.037Z,60.90
2023-05-18T07:17:11.300Z,60.80
2023-05-18T07:19:58.550Z,60.80
2023-05-18T07:22:45.805Z,60.70
2023-05-18T07:25:33.362Z,60.70
2023-05-18T07:28:20.734Z,60.60
2023-05-18T07:31:08.039Z,60.50
2023-05-18T07:33:55.320Z,60.40
2023-05-18T07:36:42.576Z,60.50
2023-05-18T07:39:29.848Z,60.60
2023-05-18T07:42:17.110Z,60.50
2023-05-18T07:45:04.721Z,60.50
2023-05-18T07:47:52.192Z,60.50
2023-05-18T07:50:39.499Z,60.70
2023-05-18T07:53:27.000Z,60.90
2023-05-18T07:56:14.230Z,60.90
2023-05-18T07:59:01.488Z,60.70
2023-05-18T08:01:49.368Z,60.70
2023-05-18T08:04:36.716Z,60.50
2023-05-18T08:07:26.477Z,60.40
2023-05-18T08:10:13.810Z,60.50
2023-05-18T08:13:01.033Z,60.40
2023-05-18T08:15:56.009Z,60.40
2023-05-18T08:18:50.820Z,60.40
2023-05-18T08:21:38.193Z,60.40
2023-05-18T08:24:25.533Z,60.30
2023-05-18T08:27:12.846Z,61.30
2023-05-18T08:30:00.156Z,60.70
2023-05-18T08:32:50.688Z,60.70
2023-05-18T08:35:39.876Z,60.80
2023-05-18T08:38:27.104Z,60.60
2023-05-18T08:41:26.464Z,60.50
2023-05-18T08:44:26.284Z,60.50
2023-05-18T08:47:15.392Z,60.70
2023-05-18T08:50:03.767Z,60.70
2023-05-18T08:52:55.878Z,60.60
2023-05-18T08:55:46.067Z,60.40
2023-05-18T08:58:38.173Z,60.50
2023-05-18T09:01:29.627Z,60.90
2023-05-18T09:04:18.807Z,60.90
2023-05-18T09:07:09.160Z,60.50
2023-05-18T09:09:57.471Z,60.40
2023-05-18T09:12:47.086Z,60.00
2023-05-18T09:15:35.473Z,59.80
2023-05-18T09:18:24.591Z,59.50
2023-05-18T09:21:13.475Z,59.50
2023-05-18T09:24:01.370Z,59.20
2023-05-18T09:26:48.785Z,59.20
2023-05-18T09:29:36.121Z,59.00
2023-05-18T09:32:24.317Z,58.70
2023-05-18T09:35:12.456Z,58.20
2023-05-18T09:38:04.438Z,57.60
2023-05-18T09:40:52.248Z,57.30
2023-05-18T09:43:40.213Z,57.30
2023-05-18T09:46:32.384Z,57.10
2023-05-18T09:49:23.010Z,57.10
2023-05-18T09:52:10.930Z,57.30
2023-05-18T09:55:02.621Z,56.80
2023-05-18T09:57:51.198Z,56.40
2023-05-18T10:00:42.934Z,55.70
2023-05-18T10:03:38.151Z,55.00
2023-05-18T10:06:27.714Z,54.50
2023-05-18T10:09:18.086Z,54.10
2023-05-18T10:12:17.990Z,53.90
2023-05-18T10:15:08.900Z,54.40
2023-05-18T10:17:58.051Z,54.30
2023-05-18T10:20:47.869Z,53.60
2023-05-18T10:23:36.900Z,53.50
2023-05-18T10:26:28.254Z,53.10
2023-05-18T10:29:17.195Z,53.70
2023-05-18T10:32:07.707Z,53.00
2023-05-18T10:34:57.073Z,52.70
2023-05-18T10:37:50.227Z,53.00
2023-05-18T10:40:39.748Z,52.80
2023-05-18T10:43:28.485Z,53.30
2023-05-18T10:46:16.828Z,52.70
2023-05-18T10:49:05.855Z,52.00
2023-05-18T10:51:56.735Z,51.30
2023-05-18T10:54:45.137Z,51.00
2023-05-18T10:57:43.570Z,51.00
2023-05-18T11:00:34.335Z,50.80
2023-05-18T11:03:22.557Z,50.60
2023-05-18T11:06:12.340Z,50.40
2023-05-18T11:08:59.637Z,50.40
2023-05-18T11:12:00.353Z,50.50
2023-05-18T11:14:52.559Z,50.50
2023-05-18T11:17:39.843Z,50.60
2023-05-18T11:20:27.094Z,50.60
2023-05-18T11:23:21.135Z,50.60
2023-05-18T11:26:16.555Z,50.80
2023-05-18T11:29:20.055Z,50.70
2023-05-18T11:32:32.324Z,50.50
2023-05-18T11:35:25.997Z,50.00
2023-05-18T11:38:13.732Z,49.50
2023-05-18T11:41:01.149Z,50.00
2023-05-18T11:44:18.956Z,49.60
2023-05-18T11:47:09.948Z,49.10
2023-05-18T11:49:57.697Z,49.10
2023-05-18T11:52:53.225Z,49.00
2023-05-18T11:55:41.873Z,49.00
2023-05-18T11:58:30.704Z,48.90
2023-05-18T12:01:18.458Z,48.90
2023-05-18T12:04:06.333Z,48.90
2023-05-18T12:06:54.983Z,49.50
2023-05-18T12:09:47.057Z,49.40
2023-05-18T12:12:35.335Z,49.10
2023-05-18T12:15:24.018Z,48.90
2023-05-18T12:18:11.632Z,49.20
2023-05-18T12:20:59.033Z,49.10
2023-05-18T12:23:46.230Z,49.10
2023-05-18T12:26:33.472Z,49.20
2023-05-18T12:29:21.916Z,49.50
2023-05-18T12:32:11.108Z,49.50
2023-05-18T12:34:59.925Z,49.80
2023-05-18T12:37:47.551Z,49.60
2023-05-18T12:40:46.519Z,49.60
2023-05-18T12:43:35.022Z,49.70
2023-05-18T12:46:24.050Z,50.10
2023-05-18T12:49:11.823Z,50.50
2023-05-18T12:52:15.023Z,50.40
2023-05-18T12:55:03.411Z,49.80
2023-05-18T12:58:03.198Z,49.50
2023-05-18T13:00:50.548Z,48.50
2023-05-18T13:03:42.270Z,48.40
2023-05-18T13:06:29.612Z,48.50
2023-05-18T13:09:17.365Z,48.20
2023-05-18T13:12:07.963Z,48.20
2023-05-18T13:14:55.443Z,48.60
2023-05-18T13:17:59.200Z,49.20
2023-05-18T13:20:51.495Z,48.20
2023-05-18T13:23:39.531Z,48.40
2023-05-18T13:26:27.243Z,48.20
2023-05-18T13:29:14.568Z,48.20
2023-05-18T13:32:01.804Z,48.40
2023-05-18T13:39:00.912Z,47.90
2023-05-18T13:41:48.144Z,48.00
2023-05-18T13:44:35.450Z,48.00
2023-05-18T13:47:22.718Z,47.80
2023-05-18T13:50:10.212Z,48.00
2023-05-18T13:52:57.481Z,47.60
2023-05-18T13:55:44.722Z,48.00
2023-05-18T13:58:32.372Z,47.60
2023-05-18T14:01:21.645Z,47.20
2023-05-18T14:04:08.906Z,47.00
2023-05-18T14:06:56.112Z,47.10
2023-05-18T14:09:43.370Z,47.20
2023-05-18T14:12:30.741Z,47.30
2023-05-18T14:15:17.968Z,47.80
2023-05-18T14:18:05.511Z,47.60
2023-05-18T14:20:53.331Z,47.60
2023-05-18T14:23:40.586Z,47.90
2023-05-18T14:26:28.587Z,47.60
2023-05-18T14:29:15.882Z,47.60
2023-05-18T14:32:03.221Z,47.60
2023-05-18T14:34:55.980Z,47.00
2023-05-18T14:37:43.232Z,47.10
2023-05-18T14:40:30.772Z,47.40
2023-05-18T14:43:18.154Z,47.10
2023-05-18T14:46:08.593Z,46.90
2023-05-18T14:48:56.322Z,46.70
2023-05-18T14:51:43.595Z,46.30
2023-05-18T14:54:30.860Z,46.30
2023-05-18T14:57:18.056Z,46.30
2023-05-18T15:00:05.668Z,46.30
2023-05-18T15:02:53.003Z,45.40
2023-05-18T15:05:40.458Z,45.20
2023-05-18T15:08:27.690Z,45.60
2023-05-18T15:11:14.984Z,45.60
2023-05-18T15:14:02.176Z,45.70
2023-05-18T15:16:52.340Z,45.80
2023-05-18T15:19:39.532Z,45.70
2023-05-18T15:22:26.796Z,46.10
2023-05-18T15:25:14.018Z,46.20
2023-05-18T15:28:01.414Z,46.00
2023-05-18T15:30:48.644Z,45.60
2023-05-18T15:33:36.967Z,44.70
2023-05-18T15:36:24.475Z,44.20
2023-05-18T15:39:11.910Z,41.50
2023-05-18T15:41:59.260Z,40.10
2023-05-18T15:44:46.493Z,39.20
2023-05-18T15:47:33.814Z,38.70
2023-05-18T15:50:21.084Z,37.90
2023-05-18T15:53:08.273Z,38.00
2023-05-18T15:55:59.119Z,38.50
2023-05-18T15:58:46.899Z,38.50
2023-05-18T16:01:34.730Z,38.70
2023-05-18T16:04:22.210Z,38.80
2023-05-18T16:07:09.491Z,38.80
2023-05-18T16:09:56.730Z,39.10
2023-05-18T16:12:44.003Z,39.20
2023-05-18T16:15:33.285Z,39.80
2023-05-18T16:18:20.523Z,40.00
2023-05-18T16:21:08.581Z,40.00
2023-05-18T16:23:56.423Z,40.00
2023-05-18T16:26:43.636Z,39.90
2023-05-18T16:29:30.951Z,39.80
2023-05-18T16:32:18.904Z,39.30
2023-05-18T16:35:06.654Z,38.90
2023-05-18T16:37:53.932Z,38.50
2023-05-18T16:40:41.208Z,38.20
2023-05-18T16:43:28.498Z,38.00
2023-05-18T16:46:17.503Z,37.80
2023-05-18T16:49:05.089Z,37.60
2023-05-18T16:51:52.964Z,37.20
2023-05-18T16:54:40.255Z,37.00
2023-05-18T16:57:27.813Z,37.00
2023-05-18T17:00:16.702Z,36.40
2023-05-18T17:03:04.611Z,35.80
2023-05-18T17:05:52.147Z,35.60
2023-05-18T17:08:39.526Z,34.60
2023-05-18T17:11:27.632Z,34.30
2023-05-18T17:14:15.183Z,34.20
2023-05-18T17:17:03.083Z,34.10
2023-05-18T17:19:51.496Z,34.00
2023-05-18T17:22:38.771Z,33.90
2023-05-18T17:25:26.042Z,33.60
2023-05-18T17:28:13.930Z,33.70
2023-05-18T17:31:01.306Z,34.20
2023-05-18T17:33:48.580Z,34.70
2023-05-18T17:36:36.056Z,35.10
2023-05-18T17:39:23.373Z,35.20
2023-05-18T17:42:10.689Z,35.50
2023-05-18T17:44:58.019Z,35.80
2023-05-18T17:47:46.383Z,36.20
2023-05-18T17:50:34.011Z,36.10
2023-05-18T17:53:22.282Z,36.10
2023-05-18T17:56:11.030Z,36.40
2023-05-18T17:58:59.197Z,36.50
2023-05-18T18:01:46.721Z,37.00
2023-05-18T18:04:34.128Z,37.60
2023-05-18T18:07:21.976Z,38.00
2023-05-18T18:10:09.687Z,38.80
2023-05-18T18:12:57.054Z,39.30
2023-05-18T18:15:44.401Z,39.70
2023-05-18T18:18:32.667Z,40.10
2023-05-18T18:21:20.031Z,40.40
2023-05-18T18:24:07.531Z,41.00
2023-05-18T18:26:55.797Z,41.50
2023-05-18T18:29:43.070Z,41.70
2023-05-18T18:32:30.536Z,41.90
2023-05-18T18:35:18.104Z,42.10
2023-05-18T18:38:05.465Z,42.40
2023-05-18T18:40:54.007Z,42.70
2023-05-18T18:43:41.227Z,42.80
2023-05-18T18:46:28.489Z,43.10
2023-05-18T18:49:15.918Z,43.20
2023-05-18T18:52:03.233Z,43.30
2023-05-18T18:54:50.463Z,43.70
2023-05-18T18:57:37.744Z,44.00
2023-05-18T19:00:25.402Z,44.20
2023-05-18T19:03:15.202Z,44.20
2023-05-18T19:06:02.653Z,44.50
2023-05-18T19:08:52.125Z,44.80
2023-05-18T19:11:39.931Z,45.20
2023-05-18T19:14:27.583Z,45.10
2023-05-18T19:17:15.536Z,45.20
2023-05-18T19:20:02.779Z,45.20
2023-05-18T19:22:50.079Z,45.30
2023-05-18T19:25:37.390Z,45.70
2023-05-18T19:28:24.808Z,46.20
2023-05-18T19:31:12.100Z,46.50
2023-05-18T19:34:00.403Z,46.80
2023-05-18T19:36:48.582Z,47.10
2023-05-18T19:39:35.875Z,47.60
2023-05-18T19:42:23.106Z,48.20
2023-05-18T19:45:10.692Z,48.80
2023-05-18T19:47:58.026Z,49.20
2023-05-18T19:50:45.580Z,49.50
2023-05-18T19:53:33.191Z,49.80
2023-05-18T19:56:22.312Z,50.20
2023-05-18T19:59:09.544Z,50.40
2023-05-18T20:02:00.130Z,50.60
2023-05-18T20:04:48.428Z,51.20
2023-05-18T20:07:36.123Z,51.40
2023-05-18T20:10:23.541Z,51.80
2023-05-18T20:13:11.196Z,52.00
2023-05-18T20:16:04.430Z,52.40
2023-05-18T20:18:52.089Z,52.60
2023-05-18T20:21:40.637Z,52.60
2023-05-18T20:24:28.044Z,52.80
2023-05-18T20:27:16.445Z,53.70
2023-05-18T20:30:04.390Z,53.10
2023-05-18T20:32:51.724Z,53.10
2023-05-18T20:35:39.409Z,53.40
2023-05-18T20:38:26.653Z,53.70
2023-05-18T20:41:13.909Z,54.00
2023-05-18T20:44:02.335Z,54.20
2023-05-18T20:46:52.963Z,54.60
2023-05-18T20:49:40.342Z,54.80
2023-05-18T20:52:29.448Z,55.00
2023-05-18T20:55:18.426Z,55.20
2023-05-18T20:58:05.706Z,55.30
2023-05-18T21:00:55.591Z,55.50
2023-05-18T21:03:45.249Z,55.80
2023-05-18T21:06:34.376Z,55.90
2023-05-18T21:09:21.668Z,56.00
2023-05-18T21:12:09.362Z,56.20
2023-05-18T21:14:56.596Z,56.20
2023-05-18T21:17:43.928Z,56.40
2023-05-18T21:20:32.230Z,56.40
2023-05-18T21:23:19.555Z,56.60
2023-05-18T21:26:06.785Z,56.60
2023-05-18T21:28:54.227Z,56.50
2023-05-18T21:31:41.654Z,56.70
2023-05-18T21:34:28.989Z,56.90
2023-05-18T21:37:16.319Z,57.00
2023-05-18T21:40:03.651Z,57.10
2023-05-18T21:42:50.880Z,57.20
2023-05-18T21:45:38.820Z,57.20
2023-05-18T21:48:26.288Z,57.40
2023-05-18T21:51:14.063Z,57.30
2023-05-18T21:54:02.174Z,57.30
2023-05-18T21:56:49.559Z,57.30
2023-05-18T21:59:36.806Z,57.30
2023-05-18T22:02:24.071Z,57.60
2023-05-18T22:05:11.385Z,57.60
2023-05-18T22:07:59.195Z,57.80
2023-05-18T22:10:46.723Z,58.00
2023-05-18T22:13:33.978Z,58.10
2023-05-18T22:16:21.712Z,58.20
2023-05-18T22:19:08.998Z,58.40
2023-05-18T22:21:56.465Z,58.40
2023-05-18T22:24:45.081Z,58.60
2023-05-18T22:27:33.881Z,58.60
2023-05-18T22:30:23.749Z,58.50
2023-05-18T22:33:11.030Z,58.60
2023-05-18T22:35:58.457Z,58.70
2023-05-18T22:38:46.139Z,58.70
2023-05-18T22:41:33.467Z,58.60
2023-05-18T22:44:20.657Z,58.50
2023-05-18T22:47:07.941Z,58.60
2023-05-18T22:49:55.153Z,58.70
2023-05-18T22:52:42.387Z,58.70
2023-05-18T22:55:29.587Z,58.70
2023-05-18T22:58:16.793Z,58.80
2023-05-18T23:01:03.968Z,58.80
2023-05-18T23:03:51.446Z,58.90
2023-05-18T23:06:41.289Z,59.00
2023-05-18T23:09:28.662Z,59.10
2023-05-18T23:12:15.880Z,59.00
2023-05-18T23:15:04.156Z,59.00
2023-05-18T23:17:57.574Z,59.20
2023-05-18T23:20:45.190Z,59.10
2023-05-18T23:23:32.424Z,59.10
2023-05-18T23:26:19.640Z,59.20
2023-05-18T23:29:06.905Z,59.10
2023-05-18T23:31:54.280Z,59.10
2023-05-18T23:34:42.379Z,59.30
2023-05-18T23:37:35.180Z,59.40
2023-05-18T23:40:23.149Z,59.40
2023-05-18T23:43:10.608Z,59.40
2023-05-18T23:45:59.676Z,59.40
2023-05-18T23:48:47.311Z,59.50
2023-05-18T23:51:36.570Z,59.50
2023-05-18T23:54:24.150Z,59.60
2023-05-18T23:57:11.863Z,59.60
2023-05-18T23:59:59.436Z,59.60
